City Of Vicksburg — WDC2660 — position and weather

sailwx.info

Track history (hours):
 
Tides and Currents Weather Stations Pressure Air Temp Water Temp Dewpoint Dewpoint Depression Visibility Wind Speed Wind Dir Waves Ship Positions

City Of Vicksburg

Owner: Kirby Inland Marine LP, Houston, TX. More information available from US FCC via Universal Licensing System and Coast Guard Vessel Documentation Center.

Last reported at 2018-Apr-19 08:43 UTC. Time now 2018-Apr-22 10:54 UTC.
Position N 32°44' W 091°04'.

Length 343 m; draft 3 m.

Type: . MMSI: 366996120.

Date/timePositionNaut miles runAvg speedWind from/ knotsBaromVisibWave heightAir tempDewpointWater temp
2018-Apr-19 08:43N 32°44' W 091°04'1 3.2
2018-Apr-19 08:27N 32°43' W 091°03'2 3.6
2018-Apr-19 07:47N 32°41' W 091°05'2 4.4
2018-Apr-19 07:15N 32°39' W 091°07'3 4.7
2018-Apr-19 06:38N 32°37' W 091°09'1 4.4
2018-Apr-19 06:31N 32°36' W 091°09'2 3.9
2018-Apr-19 06:01N 32°35' W 091°07'2 3.4
2018-Apr-19 05:31N 32°33' W 091°07'2 4.1
2018-Apr-19 05:00N 32°31' W 091°07'2 4.4
2018-Apr-19 04:31N 32°29' W 091°07'2 3.6
2018-Apr-19 04:00N 32°27' W 091°05'2 4.4
2018-Apr-19 03:31N 32°26' W 091°03'2 4.5
2018-Apr-19 03:00N 32°26' W 091°01'2 3.9
2018-Apr-19 02:31N 32°24' W 090°60'2 4.5
2018-Apr-19 02:01N 32°22' W 091°00'2 4.0
2018-Apr-19 01:31N 32°21' W 090°58'2 3.9
2018-Apr-19 01:01N 32°21' W 090°56'2 3.5
2018-Apr-19 00:31N 32°19' W 090°54'2 4.4
2018-Apr-19 00:01N 32°18' W 090°56'1 2.1
2018-Apr-18 23:31N 32°17' W 090°57'2 3.5
2018-Apr-18 23:00N 32°15' W 090°58'2 4.9
2018-Apr-18 22:30N 32°13' W 090°59'2 4.2
2018-Apr-18 22:01N 32°11' W 090°60'2 4.3
2018-Apr-18 21:31N 32°09' W 090°60'2 4.1
2018-Apr-18 21:00N 32°07' W 091°01'2 3.2
2018-Apr-18 20:31N 32°08' W 091°03'3 5.0
2018-Apr-18 20:00N 32°08' W 091°06'2 3.3
2018-Apr-18 19:29N 32°06' W 091°06'3 5.1
2018-Apr-18 18:51N 32°03' W 091°04'1 4.1
2018-Apr-18 18:30N 32°02' W 091°04'18 4.2
2018-Apr-18 14:10N 31°50' W 091°20'1 4.2
2018-Apr-18 13:56N 31°49' W 091°21'2 4.7
2018-Apr-18 13:30N 31°47' W 091°21'3 4.1
2018-Apr-18 12:51N 31°45' W 091°22'2 5.0
2018-Apr-18 12:29N 31°43' W 091°24'9 4.2
2018-Apr-18 10:14N 31°34' W 091°25'1 3.5
2018-Apr-18 09:56N 31°33' W 091°26'17 3.7
2018-Apr-18 05:16N 31°16' W 091°32'  
2018-Apr-15 17:34N 31°60' W 091°05'112.4
2018-Apr-15 17:28N 32°01' W 091°05'5 9.7
2018-Apr-15 16:56N 32°06' W 091°06'2 5.6
2018-Apr-15 16:29N 32°08' W 091°04'3 7.0
2018-Apr-15 16:00N 32°09' W 091°00'611.9
2018-Apr-15 15:30N 32°15' W 090°59'611.3
2018-Apr-15 15:00N 32°19' W 090°54'3 6.0
2018-Apr-15 14:30N 32°21' W 090°57'3 6.3
2018-Apr-15 14:00N 32°23' W 090°60'4 7.3
2018-Apr-15 13:30N 32°26' W 091°02'1 1.3
2018-Apr-15 13:00N 32°26' W 091°03'0 0.0
2018-Apr-15 12:30N 32°26' W 091°03'0 0.0
2018-Apr-15 12:00N 32°26' W 091°03'0 0.0
2018-Apr-15 11:30N 32°26' W 091°03'0 0.0
2018-Apr-15 10:59N 32°26' W 091°03'0 0.0
2018-Apr-15 10:30N 32°26' W 091°03'0 0.0
2018-Apr-15 10:00N 32°26' W 091°03'0 0.0
2018-Apr-15 09:30N 32°26' W 091°03'0 0.0
2018-Apr-15 09:00N 32°26' W 091°03'0 0.0
2018-Apr-15 08:30N 32°26' W 091°03'0 0.0
2018-Apr-15 08:00N 32°26' W 091°03'0 0.0
2018-Apr-15 07:30N 32°26' W 091°03'0 0.0
2018-Apr-15 07:00N 32°26' W 091°03'0 0.0
2018-Apr-15 06:30N 32°26' W 091°03'0 0.4
2018-Apr-15 06:00N 32°26' W 091°03'4 8.4
2018-Apr-15 05:30N 32°29' W 091°07'5 9.1
2018-Apr-15 05:00N 32°34' W 091°06'  
Track history (hours):
 
Tides and Currents Weather Stations Pressure Air Temp Water Temp Dewpoint Dewpoint Depression Visibility Wind Speed Wind Dir Waves Ship Positions

City Of Vicksburg

Owner: Kirby Inland Marine LP, Houston, TX. More information available from US FCC via Universal Licensing System and Coast Guard Vessel Documentation Center.

Last reported at 2018-Apr-19 08:43 UTC. Time now 2018-Apr-22 10:54 UTC.
Position N 32°44' W 091°04'.

Length 343 m; draft 3 m.

Type: . MMSI: 366996120.

Date/timePositionNaut miles runAvg speedWind from/ knotsBaromVisibWave heightAir tempDewpointWater temp
2018-Apr-19 08:43N 32°44' W 091°04'1 3.2
2018-Apr-19 08:27N 32°43' W 091°03'2 3.6
2018-Apr-19 07:47N 32°41' W 091°05'2 4.4
2018-Apr-19 07:15N 32°39' W 091°07'3 4.7
2018-Apr-19 06:38N 32°37' W 091°09'1 4.4
2018-Apr-19 06:31N 32°36' W 091°09'2 3.9
2018-Apr-19 06:01N 32°35' W 091°07'2 3.4
2018-Apr-19 05:31N 32°33' W 091°07'2 4.1
2018-Apr-19 05:00N 32°31' W 091°07'2 4.4
2018-Apr-19 04:31N 32°29' W 091°07'2 3.6
2018-Apr-19 04:00N 32°27' W 091°05'2 4.4
2018-Apr-19 03:31N 32°26' W 091°03'2 4.5
2018-Apr-19 03:00N 32°26' W 091°01'2 3.9
2018-Apr-19 02:31N 32°24' W 090°60'2 4.5
2018-Apr-19 02:01N 32°22' W 091°00'2 4.0
2018-Apr-19 01:31N 32°21' W 090°58'2 3.9
2018-Apr-19 01:01N 32°21' W 090°56'2 3.5
2018-Apr-19 00:31N 32°19' W 090°54'2 4.4
2018-Apr-19 00:01N 32°18' W 090°56'1 2.1
2018-Apr-18 23:31N 32°17' W 090°57'2 3.5
2018-Apr-18 23:00N 32°15' W 090°58'2 4.9
2018-Apr-18 22:30N 32°13' W 090°59'2 4.2
2018-Apr-18 22:01N 32°11' W 090°60'2 4.3
2018-Apr-18 21:31N 32°09' W 090°60'2 4.1
2018-Apr-18 21:00N 32°07' W 091°01'2 3.2
2018-Apr-18 20:31N 32°08' W 091°03'3 5.0
2018-Apr-18 20:00N 32°08' W 091°06'2 3.3
2018-Apr-18 19:29N 32°06' W 091°06'3 5.1
2018-Apr-18 18:51N 32°03' W 091°04'1 4.1
2018-Apr-18 18:30N 32°02' W 091°04'18 4.2
2018-Apr-18 14:10N 31°50' W 091°20'1 4.2
2018-Apr-18 13:56N 31°49' W 091°21'2 4.7
2018-Apr-18 13:30N 31°47' W 091°21'3 4.1
2018-Apr-18 12:51N 31°45' W 091°22'2 5.0
2018-Apr-18 12:29N 31°43' W 091°24'9 4.2
2018-Apr-18 10:14N 31°34' W 091°25'1 3.5
2018-Apr-18 09:56N 31°33' W 091°26'17 3.7
2018-Apr-18 05:16N 31°16' W 091°32'  
2018-Apr-15 17:34N 31°60' W 091°05'112.4
2018-Apr-15 17:28N 32°01' W 091°05'5 9.7
2018-Apr-15 16:56N 32°06' W 091°06'2 5.6
2018-Apr-15 16:29N 32°08' W 091°04'3 7.0
2018-Apr-15 16:00N 32°09' W 091°00'611.9
2018-Apr-15 15:30N 32°15' W 090°59'611.3
2018-Apr-15 15:00N 32°19' W 090°54'3 6.0
2018-Apr-15 14:30N 32°21' W 090°57'3 6.3
2018-Apr-15 14:00N 32°23' W 090°60'4 7.3
2018-Apr-15 13:30N 32°26' W 091°02'1 1.3
2018-Apr-15 13:00N 32°26' W 091°03'0 0.0
2018-Apr-15 12:30N 32°26' W 091°03'0 0.0
2018-Apr-15 12:00N 32°26' W 091°03'0 0.0
2018-Apr-15 11:30N 32°26' W 091°03'0 0.0
2018-Apr-15 10:59N 32°26' W 091°03'0 0.0
2018-Apr-15 10:30N 32°26' W 091°03'0 0.0
2018-Apr-15 10:00N 32°26' W 091°03'0 0.0
2018-Apr-15 09:30N 32°26' W 091°03'0 0.0
2018-Apr-15 09:00N 32°26' W 091°03'0 0.0
2018-Apr-15 08:30N 32°26' W 091°03'0 0.0
2018-Apr-15 08:00N 32°26' W 091°03'0 0.0
2018-Apr-15 07:30N 32°26' W 091°03'0 0.0
2018-Apr-15 07:00N 32°26' W 091°03'0 0.0
2018-Apr-15 06:30N 32°26' W 091°03'0 0.4
2018-Apr-15 06:00N 32°26' W 091°03'4 8.4
2018-Apr-15 05:30N 32°29' W 091°07'5 9.1
2018-Apr-15 05:00N 32°34' W 091°06'  

Dump ship's entire track history